Time;durP1;ratioP1;P1;durP2;ratioP2;P2;SDS_P1;SDS_P2;PMS_P1;PMS_P2;Temp;Humidity;BMP_temperature;BMP_pressure;BME280_temperature;BME280_humidity;BME280_pressure;Samples;Min_cycle;Max_cycle;Signal;HPM_P1;HPM_P2
2022/10/22 00:00:57;;;;;;;13.13;8.68;;;;;;;1.96;92.67;99911.82;1752661;82;21260;-72
2022/10/22 00:03:23;;;;;;;13.43;8.95;;;;;;;2.00;92.66;99907.52;1752650;82;20998;-72
2022/10/22 00:05:51;;;;;;;15.70;7.70;;;;;;;2.04;92.63;99905.39;1752657;82;21474;-72
2022/10/22 00:08:18;;;;;;;11.70;7.40;;;;;;;2.09;92.58;99888.29;1752754;82;21037;-72
2022/10/22 00:10:44;;;;;;;14.35;8.15;;;;;;;2.16;92.58;99882.30;1752763;80;21002;-72
2022/10/22 00:13:11;;;;;;;11.97;7.10;;;;;;;2.21;92.61;99873.30;1752718;82;21158;-72
2022/10/22 00:15:37;;;;;;;11.80;8.28;;;;;;;2.28;92.64;99869.88;1752583;81;20943;-72
2022/10/22 00:18:05;;;;;;;9.85;6.83;;;;;;;2.35;92.59;99862.17;1752709;82;21006;-72
2022/10/22 00:20:32;;;;;;;12.53;7.92;;;;;;;2.42;92.45;99864.27;1752618;82;21006;-71
2022/10/22 00:22:59;;;;;;;11.57;7.75;;;;;;;2.50;92.19;99860.41;1752770;82;21000;-71
2022/10/22 00:25:26;;;;;;;10.48;7.55;;;;;;;2.55;91.90;99869.83;1752644;82;21142;-71
2022/10/22 00:27:52;;;;;;;11.80;7.10;;;;;;;2.59;91.69;99858.69;1752695;80;21519;-71
2022/10/22 00:30:19;;;;;;;11.80;7.08;;;;;;;2.63;91.43;99844.10;1752864;82;21426;-71
2022/10/22 00:32:47;;;;;;;9.78;6.80;;;;;;;2.67;91.11;99849.23;1752679;80;21001;-71
2022/10/22 00:35:15;;;;;;;10.53;6.40;;;;;;;2.73;90.87;99840.66;1753123;80;20906;-71
2022/10/22 00:37:43;;;;;;;11.12;7.25;;;;;;;2.79;90.74;99838.07;1752897;82;22067;-71
2022/10/22 00:40:11;;;;;;;11.35;6.85;;;;;;;2.82;90.49;99838.03;1752794;82;21444;-70
2022/10/22 00:42:37;;;;;;;10.35;6.80;;;;;;;2.85;90.39;99837.17;1752532;82;21430;-70
2022/10/22 00:45:12;;;;;;;8.98;6.62;;;;;;;2.90;90.19;99829.02;1752840;82;21493;-70
2022/10/22 00:48:07;;;;;;;10.38;6.15;;;;;;;2.91;90.04;99821.30;1752701;82;20958;-71
2022/10/22 00:50:39;;;;;;;9.93;6.03;;;;;;;2.92;89.85;99812.73;1752750;80;21159;-71
2022/10/22 00:53:22;;;;;;;11.90;5.72;;;;;;;2.93;89.77;99811.02;1752798;82;20959;-71
2022/10/22 00:55:51;;;;;;;6.45;4.47;;;;;;;2.95;89.60;99804.16;1752779;82;20938;-71
2022/10/22 00:58:20;;;;;;;7.72;5.12;;;;;;;3.01;89.47;99811.39;1752638;82;21077;-71
2022/10/22 01:00:47;;;;;;;7.20;4.78;;;;;;;3.06;89.42;99804.52;1752839;80;20962;-71
2022/10/22 01:03:14;;;;;;;8.75;4.30;;;;;;;3.14;89.12;99789.48;1752648;82;21203;-71
2022/10/22 01:05:44;;;;;;;8.23;4.90;;;;;;;3.19;88.70;99792.46;1752683;82;20977;-71
2022/10/22 01:08:16;;;;;;;10.03;4.62;;;;;;;3.25;88.38;99812.96;1752692;82;21025;-71
2022/10/22 01:11:06;;;;;;;10.60;4.65;;;;;;;3.28;88.08;99809.09;1752700;82;21002;-71
2022/10/22 01:14:04;;;;;;;7.12;4.78;;;;;;;3.30;87.76;99812.51;1698708;82;21474;-71
2022/10/22 01:16:58;;;;;;;8.68;5.37;;;;;;;3.30;87.54;99800.94;1752818;82;21107;-70
2022/10/22 01:19:46;;;;;;;9.13;4.87;;;;;;;3.28;87.40;99801.81;1752694;82;20981;-70
2022/10/22 01:22:33;;;;;;;10.05;4.37;;;;;;;3.23;87.33;99789.41;1752732;82;21002;-70
2022/10/22 01:25:33;;;;;;;5.25;3.87;;;;;;;3.18;87.30;99782.19;1753165;80;21438;-70
2022/10/22 01:28:38;;;;;;;7.80;4.25;;;;;;;3.15;87.17;99787.34;1727415;82;21065;-70
2022/10/22 01:31:05;;;;;;;8.85;4.30;;;;;;;3.11;87.25;99776.22;1752646;81;22079;-70
2022/10/22 01:33:31;;;;;;;6.22;3.95;;;;;;;3.05;87.26;99768.11;1752896;80;21513;-71
2022/10/22 01:35:58;;;;;;;7.05;3.95;;;;;;;3.05;87.34;99774.97;1752783;80;21544;-71
2022/10/22 01:38:26;;;;;;;6.60;4.45;;;;;;;3.03;87.37;99761.27;1752639;82;20958;-71
2022/10/22 01:40:54;;;;;;;6.83;3.98;;;;;;;3.01;87.33;99765.13;1752487;82;20974;-71
2022/10/22 01:43:21;;;;;;;5.97;3.72;;;;;;;2.98;87.32;99757.47;1752738;82;21155;-71
2022/10/22 01:45:53;;;;;;;5.12;3.45;;;;;;;2.96;87.37;99760.91;1752515;82;21406;-71
2022/10/22 01:48:40;;;;;;;5.55;3.80;;;;;;;2.95;87.33;99761.77;1752625;80;21061;-71
2022/10/22 01:51:35;;;;;;;4.30;3.25;;;;;;;2.95;87.26;99761.77;1752910;82;20931;-70
2022/10/22 01:54:16;;;;;;;7.95;3.47;;;;;;;2.95;87.26;99761.34;1752685;82;21005;-71
2022/10/22 01:57:09;;;;;;;7.72;3.85;;;;;;;2.96;87.27;99766.91;1753213;82;22183;-71
2022/10/22 02:00:02;;;;;;;11.70;4.00;;;;;;;2.97;87.20;99759.62;1752480;82;20998;-71
2022/10/22 02:03:03;;;;;;;8.60;3.70;;;;;;;2.96;87.07;99759.63;1732525;82;21093;-71
2022/10/22 02:05:48;;;;;;;7.28;3.85;;;;;;;2.95;86.99;99756.20;1752800;82;21072;-70
2022/10/22 02:08:19;;;;;;;7.05;3.37;;;;;;;2.92;86.89;99746.38;1752825;80;21033;-70
2022/10/22 02:10:46;;;;;;;4.45;2.60;;;;;;;2.88;86.92;99747.25;1752803;82;21783;-70
2022/10/22 02:13:18;;;;;;;7.30;3.02;;;;;;;2.86;86.92;99745.11;1752741;80;21033;-71
2022/10/22 02:15:45;;;;;;;5.12;2.80;;;;;;;2.85;86.91;99736.98;1747403;82;20994;-71
2022/10/22 02:18:12;;;;;;;5.42;3.00;;;;;;;2.84;87.01;99733.98;1752847;82;21049;-71
2022/10/22 02:20:40;;;;;;;6.42;3.35;;;;;;;2.84;86.89;99730.14;1752762;82;21017;-71
2022/10/22 02:23:07;;;;;;;8.08;3.50;;;;;;;2.84;86.90;99727.14;1752940;80;21165;-70
2022/10/22 02:25:38;;;;;;;5.85;3.40;;;;;;;2.86;86.85;99729.27;1752629;82;20938;-70
2022/10/22 02:28:19;;;;;;;6.87;3.62;;;;;;;2.87;86.71;99720.70;1753142;81;21014;-70
2022/10/22 02:30:50;;;;;;;5.65;2.95;;;;;;;2.89;86.50;99725.83;1751930;82;21002;-70
2022/10/22 02:33:29;;;;;;;7.12;3.12;;;;;;;2.91;86.40;99731.81;1753185;81;20954;-70
2022/10/22 02:35:55;;;;;;;6.72;3.02;;;;;;;2.91;86.24;99731.81;1749835;80;21144;-70
2022/10/22 02:38:23;;;;;;;9.33;2.90;;;;;;;2.93;86.19;99724.95;1752773;82;21018;-70
2022/10/22 02:40:50;;;;;;;10.48;3.47;;;;;;;2.95;86.14;99725.80;1727481;82;21418;-70
2022/10/22 02:43:17;;;;;;;5.10;2.92;;;;;;;2.98;86.29;99724.07;1727611;81;20938;-70
2022/10/22 02:45:45;;;;;;;6.67;3.27;;;;;;;3.03;86.22;99724.87;1725967;81;21017;-70
2022/10/22 02:48:13;;;;;;;5.95;3.55;;;;;;;3.07;86.15;99729.13;1726190;83;21087;-70
2022/10/22 02:50:41;;;;;;;6.22;3.62;;;;;;;3.11;85.96;99728.25;1725922;83;21012;-70
2022/10/22 02:53:08;;;;;;;6.35;3.55;;;;;;;3.16;85.82;99725.66;1726027;81;20949;-70
2022/10/22 02:55:35;;;;;;;8.18;3.50;;;;;;;3.21;85.65;99723.02;1726009;83;20945;-70
2022/10/22 02:58:03;;;;;;;7.22;3.70;;;;;;;3.24;85.55;99732.85;1725926;83;20997;-70
2022/10/22 03:00:30;;;;;;;4.97;3.42;;;;;;;3.25;85.40;99725.56;1692314;83;21158;-71
2022/10/22 03:02:58;;;;;;;4.85;3.65;;;;;;;3.26;85.24;99719.56;1720694;83;20938;-70
2022/10/22 03:05:25;;;;;;;8.55;3.55;;;;;;;3.26;85.24;99718.27;1720725;83;21041;-70
2022/10/22 03:07:52;;;;;;;9.08;3.67;;;;;;;3.27;85.22;99718.70;1720906;83;21501;-70
2022/10/22 03:10:18;;;;;;;5.80;3.52;;;;;;;3.28;85.17;99707.98;1721049;83;21413;-70
2022/10/22 03:12:47;;;;;;;7.37;3.60;;;;;;;3.27;85.22;99702.42;1720736;83;20942;-71
2022/10/22 03:15:13;;;;;;;6.67;3.77;;;;;;;3.27;85.40;99698.13;1720667;83;21030;-71
2022/10/22 03:17:41;;;;;;;5.85;3.25;;;;;;;3.27;85.45;99684.42;1720705;82;21565;-71
2022/10/22 03:20:08;;;;;;;7.20;4.25;;;;;;;3.26;85.44;99681.00;1720744;82;20950;-71
2022/10/22 03:22:34;;;;;;;5.90;3.60;;;;;;;3.26;85.44;99686.14;1720937;83;20985;-71
2022/10/22 03:25:06;;;;;;;6.42;3.45;;;;;;;3.25;85.44;99701.14;1720727;82;21779;-71
2022/10/22 03:27:35;;;;;;;6.90;3.70;;;;;;;3.24;85.30;99686.59;1721076;83;20976;-71
2022/10/22 03:30:02;;;;;;;10.03;3.83;;;;;;;3.22;85.36;99680.60;1720693;83;21005;-71
2022/10/22 03:32:29;;;;;;;5.78;4.08;;;;;;;3.16;85.33;99686.25;1720688;83;21029;-71
2022/10/22 03:34:56;;;;;;;4.92;3.58;;;;;;;3.09;85.33;99679.01;1721106;83;20946;-71
2022/10/22 03:37:23;;;;;;;7.10;4.25;;;;;;;3.04;85.50;99680.32;1720985;82;21093;-71
2022/10/22 03:39:50;;;;;;;6.50;3.77;;;;;;;3.00;85.80;99668.78;1720692;83;21382;-71
2022/10/22 03:42:17;;;;;;;9.95;4.83;;;;;;;2.97;86.17;99670.12;1720571;83;20957;-71
2022/10/22 03:44:44;;;;;;;8.13;3.72;;;;;;;2.98;86.50;99685.96;1720674;82;21488;-71
2022/10/22 03:47:10;;;;;;;8.05;3.22;;;;;;;3.00;86.61;99678.63;1720699;83;21434;-71
2022/10/22 03:49:37;;;;;;;5.15;3.65;;;;;;;3.03;86.79;99681.61;1720791;83;21954;-71
2022/10/22 03:52:12;;;;;;;5.47;3.67;;;;;;;3.04;86.73;99678.19;1720627;83;21520;-71
2022/10/22 03:54:38;;;;;;;5.50;3.83;;;;;;;3.05;86.73;99673.47;1720734;82;20949;-71
2022/10/22 03:57:05;;;;;;;6.00;3.77;;;;;;;3.06;86.83;99669.60;1692407;83;21002;-71
2022/10/22 03:59:40;;;;;;;6.50;3.20;;;;;;;3.08;86.94;99670.88;1695491;83;21063;-71
2022/10/22 04:02:06;;;;;;;5.72;3.20;;;;;;;3.09;87.02;99670.87;1726108;81;22203;-71
2022/10/22 04:04:35;;;;;;;11.50;3.35;;;;;;;3.13;87.20;99671.70;1725804;83;20874;-71
2022/10/22 04:07:03;;;;;;;6.17;3.40;;;;;;;3.15;87.41;99669.12;1695561;83;20989;-71
2022/10/22 04:09:32;;;;;;;6.62;3.52;;;;;;;3.16;87.53;99669.54;1725861;83;21056;-71
2022/10/22 04:11:59;;;;;;;7.92;3.45;;;;;;;3.16;87.72;99664.40;1692321;83;21001;-71
2022/10/22 04:14:25;;;;;;;6.22;3.45;;;;;;;3.17;87.87;99670.81;1720803;83;21112;-71
2022/10/22 04:16:53;;;;;;;5.85;3.08;;;;;;;3.17;87.95;99667.39;1720725;82;21020;-71
2022/10/22 04:19:20;;;;;;;5.70;3.17;;;;;;;3.16;88.09;99663.12;1720805;83;20951;-71
2022/10/22 04:21:46;;;;;;;6.78;3.10;;;;;;;3.15;88.17;99672.55;1720933;82;20958;-71
2022/10/22 04:24:13;;;;;;;9.15;3.47;;;;;;;3.15;88.26;99672.98;1720698;83;21009;-71
2022/10/22 04:26:40;;;;;;;12.28;3.58;;;;;;;3.15;88.42;99671.26;1720729;83;21142;-71
2022/10/22 04:29:07;;;;;;;6.72;3.42;;;;;;;3.15;88.68;99668.69;1720586;82;20938;-71
2022/10/22 04:31:35;;;;;;;8.45;3.67;;;;;;;3.15;88.89;99668.69;1720767;83;20985;-71
2022/10/22 04:34:02;;;;;;;13.22;3.65;;;;;;;3.15;89.06;99668.69;1720747;83;21477;-71
2022/10/22 04:36:29;;;;;;;9.08;4.37;;;;;;;3.16;89.22;99663.97;1720775;82;21487;-71
2022/10/22 04:38:59;;;;;;;7.72;3.22;;;;;;;3.16;89.35;99662.69;1720650;82;21230;-71
2022/10/22 04:41:33;;;;;;;15.03;6.40;;;;;;;3.17;89.43;99661.82;1720564;82;20950;-71
2022/10/22 04:44:01;;;;;;;12.07;6.30;;;;;;;3.16;89.60;99658.83;1720653;83;21023;-71
2022/10/22 04:46:29;;;;;;;14.73;6.60;;;;;;;3.15;89.85;99663.98;1720759;83;21006;-71
2022/10/22 04:48:56;;;;;;;16.40;5.85;;;;;;;3.15;90.02;99660.98;1720888;82;20949;-70
2022/10/22 04:51:24;;;;;;;14.47;6.00;;;;;;;3.15;90.37;99657.13;1720634;83;21095;-71
2022/10/22 04:53:52;;;;;;;12.55;5.33;;;;;;;3.18;90.66;99653.25;1720612;81;20934;-71
2022/10/22 04:56:23;;;;;;;12.18;5.58;;;;;;;3.21;91.03;99662.19;1720661;83;21414;-71
2022/10/22 04:58:53;;;;;;;8.43;5.33;;;;;;;3.25;91.24;99669.02;1720784;82;20961;-71
2022/10/22 05:01:22;;;;;;;11.53;5.42;;;;;;;3.30;91.38;99662.55;1720837;83;20989;-71
2022/10/22 05:03:50;;;;;;;10.32;5.40;;;;;;;3.33;91.45;99662.09;1720657;82;21172;-71
2022/10/22 05:06:19;;;;;;;12.40;5.40;;;;;;;3.37;91.60;99657.35;1720695;81;21065;-71
2022/10/22 05:08:47;;;;;;;8.75;3.90;;;;;;;3.41;91.62;99653.86;1720678;83;20962;-71
2022/10/22 05:11:19;;;;;;;6.70;4.80;;;;;;;3.46;91.67;99657.25;1720743;83;21469;-71
2022/10/22 05:13:45;;;;;;;4.87;3.33;;;;;;;3.52;92.00;99645.20;1720693;82;20977;-71
2022/10/22 05:16:13;;;;;;;12.23;4.28;;;;;;;3.59;92.19;99638.70;1720723;83;21131;-71
2022/10/22 05:18:43;;;;;;;4.97;3.10;;;;;;;3.67;92.27;99638.61;1720649;82;21033;-71
2022/10/22 05:21:14;;;;;;;7.28;3.40;;;;;;;3.75;92.20;99645.38;1720671;83;20997;-71
2022/10/22 05:23:40;;;;;;;7.20;3.67;;;;;;;3.82;92.17;99642.28;1717743;82;20942;-71
2022/10/22 05:26:08;;;;;;;10.23;3.75;;;;;;;3.90;92.07;99645.63;1720764;82;20942;-71
2022/10/22 05:28:35;;;;;;;11.63;3.80;;;;;;;3.98;92.04;99639.12;1720823;82;21438;-71
2022/10/22 05:31:01;;;;;;;8.00;3.30;;;;;;;4.08;91.92;99634.27;1720638;83;21012;-71
2022/10/22 05:33:31;;;;;;;10.45;3.75;;;;;;;4.18;91.86;99633.72;1720958;83;21553;-71
2022/10/22 05:35:58;;;;;;;5.47;3.12;;;;;;;4.28;91.85;99640.00;1720669;83;20961;-70
2022/10/22 05:38:24;;;;;;;7.85;3.85;;;;;;;4.39;91.89;99647.16;1720772;83;21009;-70
2022/10/22 05:41:09;;;;;;;9.30;4.97;;;;;;;4.53;91.78;99648.69;1720834;82;21740;-70
2022/10/22 05:43:37;;;;;;;15.75;8.15;;;;;;;4.65;91.53;99644.20;1721567;82;20934;-70
2022/10/22 05:46:10;;;;;;;11.68;5.05;;;;;;;4.82;91.20;99649.94;1697536;83;21056;-70
2022/10/22 05:48:38;;;;;;;10.82;4.70;;;;;;;4.98;90.77;99645.86;1722094;82;20949;-70
2022/10/22 05:51:07;;;;;;;13.55;4.47;;;;;;;5.12;90.35;99650.34;1722166;83;21057;-70
2022/10/22 05:53:37;;;;;;;13.83;5.40;;;;;;;5.27;89.83;99655.23;1722156;82;21357;-70
2022/10/22 05:56:08;;;;;;;10.85;3.72;;;;;;;5.41;89.41;99654.98;1721972;83;21053;-71
2022/10/22 05:58:35;;;;;;;7.53;4.05;;;;;;;5.55;89.04;99656.91;1719314;83;20961;-71
2022/10/22 06:01:07;;;;;;;8.73;3.83;;;;;;;5.72;88.69;99652.72;1701210;84;21114;-70
2022/10/22 06:03:34;;;;;;;9.55;4.37;;;;;;;5.87;88.08;99650.69;1708722;83;26872;-71
2022/10/22 06:06:04;;;;;;;16.37;4.62;;;;;;;6.04;87.60;99646.95;1714945;83;21911;-71
2022/10/22 06:08:31;;;;;;;9.03;3.80;;;;;;;6.20;87.12;99653.48;1690129;83;21004;-71
2022/10/22 06:10:57;;;;;;;8.35;3.60;;;;;;;6.34;86.53;99651.92;1714706;83;20984;-71
2022/10/22 06:13:24;;;;;;;7.00;4.35;;;;;;;6.47;86.01;99651.63;1714634;83;21515;-71
2022/10/22 06:15:55;;;;;;;6.35;4.62;;;;;;;6.62;85.21;99653.00;1714600;83;21094;-71
2022/10/22 06:18:19;;;;;;;6.00;4.05;;;;;;;6.77;84.75;99657.00;1714215;83;21209;-71
2022/10/22 06:20:46;;;;;;;8.33;3.92;;;;;;;6.93;84.50;99653.61;1713815;83;21029;-71
2022/10/22 06:23:14;;;;;;;5.83;3.87;;;;;;;7.08;84.04;99651.50;1714541;83;21024;-71
2022/10/22 06:25:42;;;;;;;7.58;5.20;;;;;;;7.23;83.60;99656.72;1714501;83;21638;-71
2022/10/22 06:28:09;;;;;;;8.43;5.62;;;;;;;7.37;83.04;99648.19;1714554;83;20984;-71
2022/10/22 06:30:37;;;;;;;8.03;5.72;;;;;;;7.48;82.37;99638.41;1713929;83;21163;-71
2022/10/22 06:33:04;;;;;;;9.08;4.92;;;;;;;7.60;81.95;99644.98;1714467;83;21016;-71
2022/10/22 06:35:32;;;;;;;13.83;5.50;;;;;;;7.70;81.49;99639.12;1714491;83;21027;-71
2022/10/22 06:38:00;;;;;;;5.45;3.87;;;;;;;7.80;81.21;99636.67;1714612;83;20969;-71
2022/10/22 06:40:27;;;;;;;9.90;4.55;;;;;;;7.87;80.51;99635.18;1714655;83;21020;-71
2022/10/22 06:42:54;;;;;;;8.85;4.15;;;;;;;7.91;80.14;99635.50;1709721;83;21116;-72
2022/10/22 06:45:22;;;;;;;9.85;4.67;;;;;;;7.97;79.92;99632.34;1698910;84;21571;-71
2022/10/22 06:47:48;;;;;;;5.67;4.00;;;;;;;8.00;79.87;99629.64;1698863;83;21084;-71
2022/10/22 06:50:15;;;;;;;8.83;4.67;;;;;;;8.03;79.87;99625.23;1698758;83;20988;-71
2022/10/22 06:52:42;;;;;;;14.75;5.20;;;;;;;8.09;79.93;99626.36;1698876;84;21037;-71
2022/10/22 06:55:09;;;;;;;9.00;4.75;;;;;;;8.16;79.69;99620.56;1698810;84;21743;-71
2022/10/22 06:57:37;;;;;;;10.23;5.60;;;;;;;8.19;79.43;99618.70;1698767;84;21455;-72
2022/10/22 07:00:06;;;;;;;8.20;4.83;;;;;;;8.24;79.33;99616.83;1698857;84;21051;-71
2022/10/22 07:02:33;;;;;;;9.40;4.78;;;;;;;8.28;79.28;99614.56;1672714;84;21027;-72
2022/10/22 07:04:59;;;;;;;13.10;6.62;;;;;;;8.35;79.28;99607.94;1698834;84;21103;-71
2022/10/22 07:07:26;;;;;;;15.08;5.87;;;;;;;8.42;79.11;99602.95;1698851;84;21121;-72
2022/10/22 07:09:53;;;;;;;8.65;4.62;;;;;;;8.47;78.79;99599.33;1698787;84;21156;-72
2022/10/22 07:12:19;;;;;;;10.23;4.92;;;;;;;8.54;78.32;99596.11;1698833;84;21016;-72
2022/10/22 07:14:48;;;;;;;8.18;4.83;;;;;;;8.60;78.05;99592.01;1673236;84;20976;-72
2022/10/22 07:17:15;;;;;;;8.80;7.65;;;;;;;8.64;77.95;99589.73;1672781;84;21071;-72
2022/10/22 07:19:42;;;;;;;8.48;5.70;;;;;;;8.71;78.08;99591.69;1698801;84;21793;-72
2022/10/22 07:22:09;;;;;;;12.90;5.40;;;;;;;8.76;77.78;99591.95;1698700;84;21451;-71
2022/10/22 07:24:35;;;;;;;7.70;5.10;;;;;;;8.82;77.52;99592.17;1698825;84;21507;-72
2022/10/22 07:27:02;;;;;;;12.55;5.83;;;;;;;8.88;77.41;99593.28;1698733;84;21542;-72
2022/10/22 07:29:29;;;;;;;12.00;5.75;;;;;;;8.94;77.18;99593.94;1698906;84;20963;-72
2022/10/22 07:31:57;;;;;;;7.62;5.55;;;;;;;8.98;77.01;99592.95;1698785;83;22238;-72
2022/10/22 07:34:25;;;;;;;8.43;5.10;;;;;;;9.03;77.04;99584.99;1698916;83;21003;-71
2022/10/22 07:36:52;;;;;;;8.60;5.03;;;;;;;9.08;76.71;99581.80;1698877;83;21063;-72
2022/10/22 07:39:19;;;;;;;16.10;7.08;;;;;;;9.12;76.53;99581.25;1672741;84;20988;-71
2022/10/22 07:41:45;;;;;;;6.90;4.37;;;;;;;9.15;76.12;99578.56;1699070;84;21004;-72
2022/10/22 07:44:13;;;;;;;7.15;4.35;;;;;;;9.16;76.06;99584.15;1694878;83;21159;-72
2022/10/22 07:46:40;;;;;;;6.97;4.80;;;;;;;9.17;75.74;99583.25;1693996;84;21079;-72
2022/10/22 07:49:06;;;;;;;7.67;4.05;;;;;;;9.20;75.71;99582.67;1693633;84;20968;-72
2022/10/22 07:51:33;;;;;;;8.45;4.17;;;;;;;9.26;75.67;99582.47;1693531;84;21044;-72
2022/10/22 07:53:59;;;;;;;6.53;4.55;;;;;;;9.32;75.60;99595.25;1693720;84;21004;-72
2022/10/22 07:56:26;;;;;;;6.67;3.60;;;;;;;9.40;75.44;99594.97;1693618;84;21051;-72
2022/10/22 07:58:52;;;;;;;7.85;4.90;;;;;;;9.46;75.32;99601.70;1693417;84;20996;-72
2022/10/22 08:01:19;;;;;;;6.42;4.53;;;;;;;9.54;75.26;99603.14;1693686;84;21107;-72
2022/10/22 08:03:46;;;;;;;9.10;4.75;;;;;;;9.63;75.38;99600.66;1693554;84;20987;-72
2022/10/22 08:06:13;;;;;;;17.67;5.28;;;;;;;9.72;74.90;99604.23;1693574;84;21071;-72
2022/10/22 08:08:42;;;;;;;7.25;4.30;;;;;;;9.78;74.37;99611.81;1693601;83;21043;-72
2022/10/22 08:11:08;;;;;;;13.98;4.60;;;;;;;9.84;74.37;99610.28;1693470;84;21020;-72
2022/10/22 08:13:35;;;;;;;9.20;4.47;;;;;;;9.91;74.05;99607.02;1664154;83;21023;-72
2022/10/22 08:16:02;;;;;;;9.70;5.03;;;;;;;9.95;73.91;99604.70;1693571;83;21163;-72
2022/10/22 08:18:29;;;;;;;7.10;4.15;;;;;;;9.99;73.82;99612.80;1693702;84;21016;-72
2022/10/22 08:20:56;;;;;;;8.20;4.97;;;;;;;10.00;73.50;99610.11;1663964;84;22157;-71
2022/10/22 08:23:22;;;;;;;13.85;5.58;;;;;;;10.03;73.55;99615.20;1725684;83;21472;-71
2022/10/22 08:25:49;;;;;;;9.90;4.87;;;;;;;10.08;73.43;99605.94;1725886;83;20937;-70
2022/10/22 08:28:15;;;;;;;7.65;5.05;;;;;;;10.12;73.16;99596.28;1725837;83;21036;-70
2022/10/22 08:30:45;;;;;;;10.28;5.10;;;;;;;10.17;73.23;99605.61;1725910;83;21017;-71
2022/10/22 08:33:11;;;;;;;8.10;4.30;;;;;;;10.25;73.04;99602.73;1692297;83;21883;-71
2022/10/22 08:35:37;;;;;;;10.10;4.45;;;;;;;10.33;72.85;99601.55;1720661;83;21429;-71
2022/10/22 08:38:05;;;;;;;6.70;4.37;;;;;;;10.41;72.92;99610.33;1720736;83;21533;-71
2022/10/22 08:40:34;;;;;;;6.65;4.47;;;;;;;10.54;72.75;99612.03;1720613;82;21028;-71
2022/10/22 08:43:18;;;;;;;7.47;5.20;;;;;;;10.70;72.62;99610.52;1720690;82;21111;-71
2022/10/22 08:46:13;;;;;;;4.50;3.87;;;;;;;10.87;71.84;99609.83;1721997;83;21168;-71
2022/10/22 08:48:51;;;;;;;8.60;4.78;;;;;;;10.98;71.16;99612.41;1721935;83;20990;-72
2022/10/22 08:51:21;;;;;;;13.35;3.98;;;;;;;11.07;70.33;99602.52;1719803;83;21438;-70
2022/10/22 08:54:19;;;;;;;7.80;4.00;;;;;;;11.09;69.93;99592.43;1701101;84;20992;-70
2022/10/22 08:56:51;;;;;;;10.08;3.77;;;;;;;11.10;69.87;99589.37;1721719;83;21036;-72
2022/10/22 08:59:29;;;;;;;6.85;4.15;;;;;;;11.12;69.40;99571.94;1700349;84;21148;-71
2022/10/22 09:01:57;;;;;;;10.50;5.85;;;;;;;11.09;69.45;99575.52;1717191;83;20977;-71
2022/10/22 09:04:31;;;;;;;6.85;3.87;;;;;;;11.11;69.71;99576.75;1701063;84;21063;-71
2022/10/22 09:06:58;;;;;;;8.60;4.15;;;;;;;11.13;69.50;99560.62;1722065;83;20962;-72
2022/10/22 09:09:30;;;;;;;5.72;3.65;;;;;;;11.20;69.33;99565.94;1700996;84;21055;-72
2022/10/22 09:11:58;;;;;;;8.85;4.17;;;;;;;11.30;69.04;99573.30;1697198;83;21306;-72
2022/10/22 09:14:26;;;;;;;9.00;5.72;;;;;;;11.38;68.77;99569.93;1700916;84;21007;-73
2022/10/22 09:17:32;;;;;;;14.30;5.45;;;;;;;11.50;69.03;99545.55;1722089;82;21465;-72
2022/10/22 09:20:10;;;;;;;7.60;4.65;;;;;;;11.65;68.84;99540.95;1701051;84;20984;-72
2022/10/22 09:22:49;;;;;;;4.50;3.90;;;;;;;11.80;68.13;99536.84;1721944;82;20918;-72
2022/10/22 09:25:28;;;;;;;10.70;4.85;;;;;;;11.86;67.47;99538.72;1701069;84;21524;-72
2022/10/22 09:27:57;;;;;;;5.87;4.15;;;;;;;11.87;67.20;99539.57;1697285;83;21001;-70
2022/10/22 09:30:27;;;;;;;10.65;4.03;;;;;;;11.91;67.01;99538.06;1701173;84;21552;-71
2022/10/22 09:33:08;;;;;;;12.05;4.80;;;;;;;11.99;67.18;99532.52;1721887;83;21060;-71
2022/10/22 09:36:04;;;;;;;7.62;4.00;;;;;;;12.16;67.02;99529.11;1701253;84;21492;-73
2022/10/22 09:38:39;;;;;;;9.20;3.92;;;;;;;12.36;66.79;99524.64;1699493;83;21434;-72
2022/10/22 09:41:08;;;;;;;12.47;4.85;;;;;;;12.53;65.42;99534.73;1700916;84;46839;-71
2022/10/22 09:43:35;;;;;;;10.48;4.58;;;;;;;12.59;65.59;99532.64;1721777;82;21025;-71
2022/10/22 09:46:06;;;;;;;11.28;5.08;;;;;;;12.67;65.44;99545.33;1721991;83;20973;-70
2022/10/22 09:48:39;;;;;;;11.00;4.50;;;;;;;12.67;65.15;99556.61;1721915;83;21061;-70
2022/10/22 09:51:27;;;;;;;13.72;4.47;;;;;;;12.66;64.70;99567.12;1721898;82;21136;-70
2022/10/22 09:53:59;;;;;;;9.93;5.33;;;;;;;12.67;64.78;99575.34;1720472;82;20950;-70
2022/10/22 09:56:28;;;;;;;;;;;;;;;12.76;64.38;99568.38;1703653;84;20975;-70
2022/10/22 09:58:56;;;;;;;8.63;4.20;;;;;;;12.86;64.73;99559.63;1701108;83;20139;-71
2022/10/22 10:01:31;;;;;;;8.13;3.92;;;;;;;12.95;64.15;99554.80;1721882;83;21005;-70
2022/10/22 10:04:03;;;;;;;7.33;4.75;;;;;;;13.03;64.04;99540.05;1700993;84;21279;-70
2022/10/22 10:06:31;;;;;;;;;;;;;;;13.13;63.64;99539.14;1724436;83;20981;-70
2022/10/22 10:09:04;;;;;;;7.30;4.60;;;;;;;13.19;63.07;99537.56;1701010;84;20180;-71
2022/10/22 10:11:38;;;;;;;10.30;4.00;;;;;;;13.19;62.76;99527.92;1718445;83;21433;-71
2022/10/22 10:14:32;;;;;;;13.98;4.80;;;;;;;13.20;62.87;99524.85;1698363;84;21059;-70
2022/10/22 10:17:27;;;;;;;9.20;4.25;;;;;;;13.21;62.96;99527.39;1721906;82;20935;-70
2022/10/22 10:20:02;;;;;;;7.62;4.03;;;;;;;13.25;62.60;99541.98;1671932;84;21555;-70
2022/10/22 10:22:59;;;;;;;9.90;5.40;;;;;;;13.27;62.55;99525.78;1721920;83;20957;-71
2022/10/22 10:25:50;;;;;;;12.30;5.15;;;;;;;13.30;62.40;99515.64;1701082;84;20999;-71
2022/10/22 10:28:34;;;;;;;9.98;4.20;;;;;;;13.29;62.40;99503.03;1714278;83;20946;-70
2022/10/22 10:31:15;;;;;;;8.08;4.90;;;;;;;13.26;62.18;99501.89;1701123;84;21276;-70
2022/10/22 10:34:22;;;;;;;10.18;4.92;;;;;;;13.20;62.33;99501.34;1697568;83;21049;-70
2022/10/22 10:37:12;;;;;;;8.33;3.98;;;;;;;13.16;62.00;99502.45;1700914;83;20979;-71
2022/10/22 10:40:15;;;;;;;17.62;9.13;;;;;;;13.07;62.23;99502.42;1722238;83;21525;-71
2022/10/22 10:42:56;;;;;;;9.33;5.40;;;;;;;13.11;62.57;99509.18;1755329;81;20994;-71
2022/10/22 10:45:45;;;;;;;8.60;4.53;;;;;;;13.20;62.44;99507.41;1727262;81;21336;-71
2022/10/22 10:48:34;;;;;;;8.03;4.55;;;;;;;13.28;62.26;99509.19;1747262;81;20997;-71
2022/10/22 10:51:43;;;;;;;8.00;5.45;;;;;;;13.36;62.39;99508.34;1754989;81;20998;-70
2022/10/22 10:54:31;;;;;;;8.15;4.72;;;;;;;13.40;61.87;99485.48;1754876;81;21501;-71
2022/10/22 10:57:37;;;;;;;23.95;12.30;;;;;;;13.43;61.72;99482.72;1754964;81;20946;-72
2022/10/22 11:00:09;;;;;;;9.48;5.95;;;;;;;13.43;61.67;99485.33;1754831;81;22094;-71
2022/10/22 11:02:51;;;;;;;9.43;5.97;;;;;;;13.44;61.63;99489.63;1755149;81;20993;-71
2022/10/22 11:05:37;;;;;;;8.80;5.03;;;;;;;13.44;61.85;99470.03;1754933;81;21430;-71
2022/10/22 11:08:24;;;;;;;14.25;5.97;;;;;;;13.48;61.95;99464.19;1754847;81;20998;-70
2022/10/22 11:11:05;;;;;;;8.53;4.78;;;;;;;13.51;62.05;99458.34;1754872;81;21053;-71
2022/10/22 11:13:46;;;;;;;6.78;4.67;;;;;;;13.53;61.30;99459.11;1751791;81;21841;-70
2022/10/22 11:16:31;;;;;;;9.65;4.58;;;;;;;13.52;61.42;99453.96;1755374;81;21049;-71
2022/10/22 11:19:19;;;;;;;7.62;4.67;;;;;;;13.54;61.61;99457.34;1755051;81;21482;-70
2022/10/22 11:21:59;;;;;;;11.03;4.30;;;;;;;13.57;61.51;99454.10;1754788;81;20994;-70
2022/10/22 11:24:38;;;;;;;9.88;5.10;;;;;;;13.64;61.82;99451.98;1755032;81;21053;-70
2022/10/22 11:27:38;;;;;;;9.30;5.25;;;;;;;13.71;61.89;99442.42;1754498;81;21458;-70
2022/10/22 11:30:14;;;;;;;12.45;6.78;;;;;;;13.78;61.70;99443.79;1754779;81;20990;-70
2022/10/22 11:32:42;;;;;;;12.82;5.60;;;;;;;13.81;61.70;99438.83;1755046;81;20958;-70
2022/10/22 11:35:14;;;;;;;7.45;4.25;;;;;;;13.85;61.40;99432.97;1754916;81;21019;-70
2022/10/22 11:37:40;;;;;;;7.23;4.93;;;;;;;13.88;61.23;99427.11;1726155;81;21001;-71
2022/10/22 11:40:17;;;;;;;6.65;4.75;;;;;;;13.89;61.22;99431.41;1689162;81;21154;-70
2022/10/22 11:42:49;;;;;;;13.05;5.00;;;;;;;13.92;61.31;99423.41;1647807;83;21041;-71
2022/10/22 11:45:24;;;;;;;9.48;5.00;;;;;;;13.96;61.30;99424.93;1721385;83;21046;-71
2022/10/22 11:48:17;;;;;;;5.58;4.60;;;;;;;13.99;60.89;99414.73;1725080;83;21431;-71
2022/10/22 11:51:01;;;;;;;8.33;4.22;;;;;;;13.98;60.86;99413.92;1725180;83;21057;-71
2022/10/22 11:53:37;;;;;;;7.03;4.78;;;;;;;13.95;60.81;99410.62;1720834;83;21161;-70
2022/10/22 11:56:11;;;;;;;10.55;4.80;;;;;;;13.93;60.48;99411.17;1685377;85;21035;-70
2022/10/22 11:58:43;;;;;;;9.33;5.00;;;;;;;13.78;60.74;99394.58;1660854;86;21439;-70
2022/10/22 12:01:16;;;;;;;11.10;5.20;;;;;;;13.78;60.74;99394.58;1660790;86;21034;-71